Time;durP1;ratioP1;P1;durP2;ratioP2;P2;SDS_P1;SDS_P2;PMS_P1;PMS_P2;Temp;Humidity;BMP_temperature;BMP_pressure;BME280_temperature;BME280_humidity;BME280_pressure;Samples;Min_cycle;Max_cycle;Signal;HPM_P1;HPM_P2
2022/04/23 00:02:12;;;;;;;2.45;1.58;;;12.00;65.40;;;;;;5114360;28;20048;-71
2022/04/23 00:04:39;;;;;;;1.88;1.40;;;11.90;65.40;;;;;;5114372;28;20477;-70
2022/04/23 00:07:05;;;;;;;1.92;1.33;;;11.90;65.50;;;;;;5114363;28;20087;-70
2022/04/23 00:09:31;;;;;;;1.23;1.13;;;11.90;65.60;;;;;;5114376;28;20038;-70
2022/04/23 00:11:58;;;;;;;2.03;1.40;;;11.90;65.60;;;;;;5095834;28;20039;-70
2022/04/23 00:14:25;;;;;;;1.90;1.40;;;11.90;65.70;;;;;;5114118;28;20071;-70
2022/04/23 00:16:51;;;;;;;1.52;1.30;;;11.80;65.80;;;;;;5096736;28;20120;-70
2022/04/23 00:19:18;;;;;;;2.10;1.50;;;11.80;65.90;;;;;;5114247;28;20027;-71
2022/04/23 00:21:43;;;;;;;1.90;1.48;;;11.80;66.00;;;;;;5094116;28;20519;-71
2022/04/23 00:24:09;;;;;;;3.05;1.58;;;11.80;66.00;;;;;;5095358;28;20130;-71
2022/04/23 00:26:35;;;;;;;1.65;1.30;;;11.80;66.10;;;;;;5114175;28;20043;-72
2022/04/23 00:29:00;;;;;;;2.17;1.50;;;11.70;66.20;;;;;;5094123;28;20486;-71
2022/04/23 00:31:26;;;;;;;2.13;1.55;;;11.70;66.20;;;;;;5113809;28;20087;-71
2022/04/23 00:33:53;;;;;;;2.13;1.30;;;11.70;66.30;;;;;;5113821;28;20064;-72
2022/04/23 00:36:23;;;;;;;2.13;1.35;;;11.70;66.40;;;;;;5095463;28;20035;-71
2022/04/23 00:38:52;;;;;;;2.05;1.30;;;11.80;66.60;;;;;;5113708;28;20035;-71
2022/04/23 00:44:04;;;;;;;2.45;1.60;;;11.60;66.60;;;;;;5111227;28;20055;-71
2022/04/23 00:46:30;;;;;;;1.88;1.30;;;11.60;66.60;;;;;;5113484;28;20032;-71
2022/04/23 00:48:58;;;;;;;2.72;1.40;;;11.60;66.70;;;;;;5095478;28;20041;-72
2022/04/23 00:51:27;;;;;;;1.85;1.48;;;11.60;66.80;;;;;;5113896;28;20052;-72
2022/04/23 00:53:53;;;;;;;2.13;1.40;;;11.50;66.90;;;;;;5093955;28;20089;-71
2022/04/23 00:56:19;;;;;;;3.05;1.60;;;11.50;66.90;;;;;;5113514;28;20043;-71
2022/04/23 00:58:46;;;;;;;1.67;1.30;;;11.60;67.10;;;;;;5113081;28;20044;-71
2022/04/23 01:01:11;;;;;;;2.17;1.50;;;11.50;67.10;;;;;;5113878;28;20069;-72
2022/04/23 01:03:37;;;;;;;2.28;1.58;;;11.40;67.20;;;;;;5095155;28;20036;-72
2022/04/23 01:06:04;;;;;;;2.28;1.60;;;11.50;67.30;;;;;;5113633;28;20048;-71
2022/04/23 01:08:31;;;;;;;2.47;1.50;;;11.40;67.30;;;;;;5113250;28;20493;-71
2022/04/23 01:10:57;;;;;;;2.90;1.65;;;11.40;67.40;;;;;;5113450;28;20078;-73
2022/04/23 01:13:25;;;;;;;2.10;1.50;;;11.40;67.50;;;;;;5113753;28;20074;-72
2022/04/23 01:16:00;;;;;;;2.80;1.70;;;11.40;67.50;;;;;;5113760;28;20039;-72
2022/04/23 01:18:26;;;;;;;1.80;1.45;;;11.40;67.60;;;;;;5093993;28;20036;-71
2022/04/23 01:20:54;;;;;;;2.47;1.67;;;11.40;67.70;;;;;;5113179;28;20039;-72
2022/04/23 01:23:20;;;;;;;2.55;1.63;;;11.30;67.70;;;;;;5092975;28;20047;-71
2022/04/23 01:25:46;;;;;;;2.85;1.60;;;11.30;67.80;;;;;;5113559;28;20035;-73
2022/04/23 01:28:14;;;;;;;2.22;1.63;;;11.30;67.90;;;;;;5095072;28;20161;-72
2022/04/23 01:30:40;;;;;;;2.30;1.40;;;11.30;67.90;;;;;;5113386;28;20389;-72
2022/04/23 01:33:05;;;;;;;2.53;1.70;;;11.30;67.90;;;;;;5112701;28;20035;-71
2022/04/23 01:35:31;;;;;;;2.88;1.73;;;11.30;68.00;;;;;;5112718;28;20046;-71
2022/04/23 01:37:57;;;;;;;2.40;1.58;;;11.30;68.10;;;;;;5112662;28;20043;-71
2022/04/23 01:40:22;;;;;;;2.33;1.52;;;11.30;68.10;;;;;;5113020;28;20393;-71
2022/04/23 01:42:48;;;;;;;1.65;1.23;;;11.40;68.20;;;;;;5112891;28;20036;-71
2022/04/23 01:45:14;;;;;;;1.77;1.30;;;11.30;68.20;;;;;;5112555;28;20078;-71
2022/04/23 01:47:39;;;;;;;3.58;1.65;;;11.20;68.30;;;;;;5077675;28;20043;-71
2022/04/23 01:50:07;;;;;;;3.13;1.80;;;11.30;68.40;;;;;;5112806;28;20046;-72
2022/04/23 01:52:33;;;;;;;3.08;1.70;;;11.20;68.40;;;;;;5112696;28;20127;-71
2022/04/23 01:54:59;;;;;;;2.30;1.52;;;11.30;68.50;;;;;;5113052;28;20062;-71
2022/04/23 01:57:25;;;;;;;1.75;1.50;;;11.20;68.40;;;;;;5112457;28;20042;-71
2022/04/23 01:59:50;;;;;;;2.65;1.65;;;11.30;68.40;;;;;;5112524;28;20040;-72
2022/04/23 02:02:16;;;;;;;3.13;1.90;;;11.30;68.40;;;;;;5093585;28;20032;-71
2022/04/23 02:04:42;;;;;;;3.33;2.03;;;11.30;68.40;;;;;;5112154;28;20039;-72
2022/04/23 02:07:08;;;;;;;3.17;1.90;;;11.40;69.10;;;;;;5112612;28;20040;-71
2022/04/23 02:09:34;;;;;;;3.03;1.83;;;11.40;68.50;;;;;;5112598;28;20042;-71
2022/04/23 02:12:00;;;;;;;3.03;1.92;;;11.30;68.40;;;;;;5093880;28;20050;-72
2022/04/23 02:14:26;;;;;;;3.80;1.90;;;11.40;68.50;;;;;;5092956;28;20048;-72
2022/04/23 02:16:52;;;;;;;2.95;1.92;;;11.40;68.50;;;;;;5076911;28;20043;-72
2022/04/23 02:19:18;;;;;;;2.47;1.58;;;11.40;68.50;;;;;;5093442;28;20422;-71
2022/04/23 02:21:44;;;;;;;4.10;2.28;;;11.40;68.50;;;;;;5112117;28;20028;-71
2022/04/23 02:24:10;;;;;;;2.80;1.65;;;11.40;68.50;;;;;;5112284;28;20561;-71
2022/04/23 02:26:36;;;;;;;3.05;1.90;;;11.50;68.60;;;;;;5112446;28;20036;-72
2022/04/23 02:29:02;;;;;;;3.70;2.10;;;11.40;68.60;;;;;;5112027;28;20109;-71
2022/04/23 02:31:28;;;;;;;3.10;1.85;;;11.40;68.70;;;;;;5092160;28;20047;-71
2022/04/23 02:33:54;;;;;;;2.70;1.80;;;11.40;68.80;;;;;;5111720;28;20096;-71
2022/04/23 02:36:20;;;;;;;2.35;1.60;;;11.50;68.90;;;;;;5111928;28;20044;-71
2022/04/23 02:38:50;;;;;;;2.60;1.67;;;11.40;68.90;;;;;;5112467;28;20044;-71
2022/04/23 02:41:16;;;;;;;2.65;1.73;;;11.40;69.00;;;;;;5112245;28;20048;-71
2022/04/23 02:43:43;;;;;;;2.38;1.60;;;11.30;69.00;;;;;;5112502;28;20055;-71
2022/04/23 02:46:09;;;;;;;2.70;1.70;;;11.40;69.10;;;;;;5112138;28;20116;-71
2022/04/23 02:48:36;;;;;;;2.78;1.77;;;11.30;69.10;;;;;;5111901;28;20063;-72
2022/04/23 02:51:02;;;;;;;2.92;1.88;;;11.30;69.30;;;;;;5093679;28;20039;-71
2022/04/23 02:53:28;;;;;;;2.88;1.70;;;11.30;69.30;;;;;;5093686;28;20458;-72
2022/04/23 02:55:56;;;;;;;2.97;1.80;;;11.30;69.40;;;;;;5076655;28;20028;-71
2022/04/23 02:58:25;;;;;;;2.88;1.83;;;11.30;69.50;;;;;;5111919;28;20036;-72
2022/04/23 03:00:52;;;;;;;3.53;1.90;;;11.20;69.50;;;;;;5111513;28;20508;-72
2022/04/23 03:03:19;;;;;;;3.30;1.90;;;11.30;70.30;;;;;;5111766;28;20055;-71
2022/04/23 03:05:44;;;;;;;3.65;2.00;;;11.20;69.70;;;;;;5111643;28;20039;-71
2022/04/23 03:08:12;;;;;;;2.58;1.70;;;11.20;69.70;;;;;;5111830;28;20051;-71
2022/04/23 03:10:39;;;;;;;2.90;1.77;;;11.20;69.80;;;;;;5112120;28;20039;-71
2022/04/23 03:13:07;;;;;;;3.05;2.08;;;11.20;69.80;;;;;;5112266;28;20078;-71
2022/04/23 03:15:34;;;;;;;3.00;1.75;;;11.20;69.80;;;;;;5094059;28;20140;-71
2022/04/23 03:18:09;;;;;;;3.05;1.95;;;11.20;69.80;;;;;;5115074;28;20037;-71
2022/04/23 03:20:37;;;;;;;3.75;2.42;;;11.20;70.00;;;;;;5115188;28;20039;-71
2022/04/23 03:23:03;;;;;;;3.45;2.10;;;11.10;69.90;;;;;;5097493;28;20135;-71
2022/04/23 03:25:29;;;;;;;3.03;1.85;;;11.20;70.10;;;;;;5114815;28;20112;-72
2022/04/23 03:27:55;;;;;;;3.03;1.98;;;11.20;70.10;;;;;;5115346;28;20044;-71
2022/04/23 03:30:21;;;;;;;3.80;2.25;;;11.10;70.10;;;;;;5115269;28;20039;-72
2022/04/23 03:32:47;;;;;;;4.13;2.15;;;11.10;70.20;;;;;;5114873;28;20078;-72
2022/04/23 03:35:13;;;;;;;2.88;1.98;;;11.10;70.30;;;;;;5096539;28;20039;-70
2022/04/23 03:37:40;;;;;;;3.08;1.88;;;11.10;70.30;;;;;;5115056;28;20491;-71
2022/04/23 03:40:07;;;;;;;2.97;1.92;;;11.10;70.30;;;;;;5114618;28;20046;-70
2022/04/23 03:42:35;;;;;;;2.60;1.90;;;11.10;70.30;;;;;;5114648;28;20093;-71
2022/04/23 03:45:02;;;;;;;3.60;2.10;;;11.10;70.40;;;;;;5114781;28;20492;-71
2022/04/23 03:47:28;;;;;;;3.28;2.00;;;11.10;70.40;;;;;;5114580;28;20067;-71
2022/04/23 03:49:54;;;;;;;2.97;2.03;;;11.00;70.40;;;;;;5114399;28;20089;-71
2022/04/23 03:52:20;;;;;;;3.10;1.95;;;11.00;70.50;;;;;;5094437;28;20044;-71
2022/04/23 03:54:47;;;;;;;3.17;1.92;;;11.00;70.60;;;;;;5114817;28;20056;-71
2022/04/23 03:57:12;;;;;;;2.97;1.92;;;11.00;70.60;;;;;;5095217;28;20051;-71
2022/04/23 03:59:38;;;;;;;2.42;1.77;;;11.00;70.60;;;;;;5114150;28;20035;-72
2022/04/23 04:02:05;;;;;;;3.33;1.88;;;10.90;70.60;;;;;;5096704;28;20038;-72
2022/04/23 04:04:32;;;;;;;3.35;1.83;;;10.90;70.80;;;;;;5096280;28;20055;-71
2022/04/23 04:07:00;;;;;;;3.28;2.10;;;11.00;70.90;;;;;;5096771;28;20039;-71
2022/04/23 04:09:27;;;;;;;3.95;2.20;;;10.90;71.00;;;;;;5114691;28;20036;-71
2022/04/23 04:14:35;;;;;;;3.65;2.30;;;10.80;71.00;;;;;;5114210;28;20412;-71
2022/04/23 04:17:03;;;;;;;3.53;2.13;;;10.80;71.00;;;;;;5114536;28;20495;-70
2022/04/23 04:19:30;;;;;;;2.78;1.98;;;10.90;71.20;;;;;;5114013;28;20492;-71
2022/04/23 04:21:57;;;;;;;2.83;1.73;;;10.80;71.20;;;;;;5096279;28;20135;-71
2022/04/23 04:24:24;;;;;;;3.90;2.13;;;10.80;71.20;;;;;;5113927;28;20047;-71
2022/04/23 04:26:52;;;;;;;4.15;2.20;;;10.70;71.20;;;;;;5114044;28;20050;-71
2022/04/23 04:29:18;;;;;;;3.40;2.00;;;10.80;71.30;;;;;;5114468;28;20048;-72
2022/04/23 04:31:47;;;;;;;3.05;1.95;;;10.70;71.90;;;;;;5114277;28;20123;-71
2022/04/23 04:34:13;;;;;;;2.92;2.03;;;10.70;71.30;;;;;;5114122;28;20043;-72
2022/04/23 04:36:39;;;;;;;3.03;2.13;;;10.70;71.30;;;;;;5114321;28;20058;-71
2022/04/23 04:39:05;;;;;;;3.20;2.10;;;10.70;71.30;;;;;;5114348;28;20477;-72
2022/04/23 04:41:31;;;;;;;3.42;2.22;;;10.70;71.40;;;;;;5094775;28;20072;-71
2022/04/23 04:43:57;;;;;;;3.13;1.90;;;10.60;71.40;;;;;;5113725;28;20044;-71
2022/04/23 04:46:23;;;;;;;3.70;2.50;;;10.70;71.60;;;;;;5113881;28;20035;-72
2022/04/23 04:48:51;;;;;;;3.88;2.60;;;10.70;71.60;;;;;;5114386;28;20047;-72
2022/04/23 04:51:17;;;;;;;3.00;1.98;;;10.60;71.60;;;;;;5113760;28;20048;-71
2022/04/23 04:53:43;;;;;;;3.45;2.20;;;10.60;71.60;;;;;;5095922;28;20401;-71
2022/04/23 04:56:09;;;;;;;3.45;2.30;;;10.60;71.70;;;;;;5114098;28;20035;-71
2022/04/23 04:58:35;;;;;;;3.17;2.10;;;10.60;71.80;;;;;;5095993;28;20499;-71
2022/04/23 05:01:02;;;;;;;3.28;1.98;;;10.50;71.80;;;;;;5114091;28;20181;-71
2022/04/23 05:03:28;;;;;;;3.78;2.30;;;10.60;71.90;;;;;;5094236;28;20052;-72
2022/04/23 05:05:53;;;;;;;4.15;2.28;;;10.50;71.80;;;;;;5095352;28;20050;-71
2022/04/23 05:08:19;;;;;;;3.28;2.33;;;10.50;71.90;;;;;;5095368;28;20036;-71
2022/04/23 05:10:46;;;;;;;3.17;1.98;;;10.60;72.00;;;;;;5113918;28;20046;-71
2022/04/23 05:13:12;;;;;;;3.38;2.10;;;10.60;72.00;;;;;;5094933;28;20180;-72
2022/04/23 05:15:37;;;;;;;3.72;2.20;;;10.50;71.90;;;;;;5113965;28;20498;-71
2022/04/23 05:18:03;;;;;;;3.58;2.20;;;10.50;71.90;;;;;;5095751;28;20054;-71
2022/04/23 05:20:29;;;;;;;3.97;2.35;;;10.50;72.00;;;;;;5113401;28;20036;-71
2022/04/23 05:22:55;;;;;;;3.63;2.25;;;10.50;71.90;;;;;;5113551;28;20131;-72
2022/04/23 05:25:21;;;;;;;3.17;2.10;;;10.60;72.00;;;;;;5113171;28;20507;-70
2022/04/23 05:27:46;;;;;;;3.78;2.40;;;10.60;72.00;;;;;;5113594;28;20044;-70
2022/04/23 05:30:12;;;;;;;3.58;2.33;;;10.60;72.00;;;;;;5113138;28;20130;-73
2022/04/23 05:32:38;;;;;;;3.92;2.55;;;10.60;72.00;;;;;;5113502;28;20036;-71
2022/04/23 05:35:04;;;;;;;4.05;2.53;;;10.60;72.00;;;;;;5113025;28;20456;-72
2022/04/23 05:37:30;;;;;;;4.78;2.75;;;10.70;72.10;;;;;;5113212;28;20036;-72
2022/04/23 05:39:56;;;;;;;4.35;2.83;;;10.60;72.00;;;;;;5112998;28;20530;-72
2022/04/23 05:42:22;;;;;;;3.75;2.30;;;10.60;72.00;;;;;;5113505;28;20038;-72
2022/04/23 05:44:47;;;;;;;3.63;2.50;;;10.60;72.10;;;;;;5094890;28;20035;-72
2022/04/23 05:47:13;;;;;;;4.38;2.60;;;10.60;72.10;;;;;;5094570;28;20481;-72
2022/04/23 05:49:39;;;;;;;3.13;2.05;;;10.60;72.10;;;;;;5112738;28;20134;-72
2022/04/23 05:52:05;;;;;;;3.45;2.08;;;10.60;72.20;;;;;;5112921;28;20043;-73
2022/04/23 05:54:31;;;;;;;3.78;2.38;;;10.60;72.30;;;;;;5113321;28;20044;-72
2022/04/23 05:56:57;;;;;;;2.80;1.77;;;10.60;72.30;;;;;;5095128;28;20377;-72
2022/04/23 05:59:26;;;;;;;3.17;2.00;;;10.60;72.30;;;;;;5113353;28;20035;-73
2022/04/23 06:01:51;;;;;;;2.92;1.85;;;10.60;72.30;;;;;;5112887;28;20035;-72
2022/04/23 06:04:17;;;;;;;3.50;2.28;;;10.60;72.30;;;;;;5077603;28;20397;-72
2022/04/23 06:06:43;;;;;;;3.58;2.38;;;10.70;72.40;;;;;;5113197;28;20377;-72
2022/04/23 06:09:09;;;;;;;3.15;2.20;;;10.70;72.40;;;;;;5112732;28;20520;-72
2022/04/23 06:11:34;;;;;;;3.58;2.20;;;10.70;72.30;;;;;;5112702;28;20043;-72
2022/04/23 06:14:01;;;;;;;3.92;2.35;;;10.70;72.20;;;;;;5094540;28;20043;-71
2022/04/23 06:16:26;;;;;;;3.05;2.08;;;10.80;72.20;;;;;;5094750;28;20482;-71
2022/04/23 06:18:52;;;;;;;4.03;2.40;;;10.70;72.10;;;;;;5112433;28;20034;-71
2022/04/23 06:21:19;;;;;;;2.92;2.10;;;10.80;72.10;;;;;;5112411;28;20036;-72
2022/04/23 06:23:44;;;;;;;3.30;2.13;;;10.80;72.10;;;;;;5112965;28;20485;-72
2022/04/23 06:26:10;;;;;;;3.50;2.10;;;10.90;72.10;;;;;;5112374;28;20088;-72
2022/04/23 06:28:36;;;;;;;4.18;2.30;;;11.00;72.10;;;;;;5077432;28;20096;-72
2022/04/23 06:31:02;;;;;;;3.47;2.10;;;10.90;72.00;;;;;;5112383;28;20075;-70
2022/04/23 06:33:27;;;;;;;4.05;2.40;;;10.90;71.90;;;;;;5094319;28;20122;-72
2022/04/23 06:35:53;;;;;;;3.80;2.28;;;11.00;72.00;;;;;;5112497;28;20035;-72
2022/04/23 06:38:19;;;;;;;3.00;2.00;;;11.00;72.60;;;;;;5112427;28;20044;-72
2022/04/23 06:40:44;;;;;;;4.35;1.90;;;11.00;72.00;;;;;;5112597;28;20040;-72
2022/04/23 06:43:10;;;;;;;2.50;1.77;;;11.10;72.00;;;;;;5112484;28;20035;-72
2022/04/23 06:45:36;;;;;;;3.22;2.10;;;11.10;71.90;;;;;;5112990;28;20039;-72
2022/04/23 06:48:04;;;;;;;3.30;2.20;;;11.20;71.80;;;;;;5094537;28;20105;-72
2022/04/23 06:50:32;;;;;;;2.97;2.10;;;11.20;72.40;;;;;;5094011;28;20135;-72
2022/04/23 06:53:00;;;;;;;2.75;1.92;;;11.40;71.70;;;;;;5115305;28;20538;-72
2022/04/23 06:55:26;;;;;;;4.05;2.40;;;11.30;71.70;;;;;;5115894;28;20043;-72
2022/04/23 06:57:52;;;;;;;3.03;1.98;;;11.40;71.70;;;;;;5115816;28;20109;-72
2022/04/23 07:00:18;;;;;;;3.60;2.00;;;11.40;71.70;;;;;;5096978;28;20489;-72
2022/04/23 07:02:43;;;;;;;3.33;2.20;;;11.50;71.60;;;;;;5115898;28;20036;-72
2022/04/23 07:05:09;;;;;;;2.90;2.00;;;11.50;71.50;;;;;;5097301;28;20429;-71
2022/04/23 07:07:35;;;;;;;3.33;2.00;;;11.60;71.50;;;;;;5097309;28;20047;-72
2022/04/23 07:10:01;;;;;;;2.75;1.90;;;11.60;71.30;;;;;;5115596;28;20527;-72
2022/04/23 07:12:27;;;;;;;2.67;1.88;;;11.70;71.30;;;;;;5115597;28;20048;-72
2022/04/23 07:14:53;;;;;;;3.05;2.05;;;11.70;71.30;;;;;;5115434;28;20046;-73
2022/04/23 07:17:26;;;;;;;3.08;1.90;;;11.80;71.10;;;;;;5097496;28;20036;-74
2022/04/23 07:19:53;;;;;;;3.50;2.03;;;11.80;71.10;;;;;;5115041;28;20119;-73
2022/04/23 07:22:20;;;;;;;2.92;1.80;;;12.00;71.20;;;;;;5097287;28;20181;-73
2022/04/23 07:24:49;;;;;;;4.28;2.38;;;12.00;71.10;;;;;;5116429;28;20062;-72
2022/04/23 07:27:14;;;;;;;3.30;2.20;;;12.10;70.90;;;;;;5116104;28;20067;-73
2022/04/23 07:29:40;;;;;;;3.75;2.40;;;12.20;70.80;;;;;;5116190;28;20090;-72
2022/04/23 07:32:06;;;;;;;4.13;2.33;;;12.20;70.70;;;;;;5116187;28;20048;-73
2022/04/23 07:39:51;;;;;;;3.80;2.35;;;12.50;70.50;;;;;;5098835;28;20118;-73
2022/04/23 07:42:17;;;;;;;2.85;1.90;;;12.50;70.30;;;;;;5115047;28;20055;-72
2022/04/23 07:44:43;;;;;;;4.88;2.30;;;12.60;70.30;;;;;;5077951;28;20538;-73
2022/04/23 07:47:08;;;;;;;4.97;2.38;;;12.60;70.10;;;;;;5096719;28;20039;-72
2022/04/23 07:49:34;;;;;;;3.30;2.13;;;12.70;70.20;;;;;;5114722;28;20046;-72
2022/04/23 07:52:00;;;;;;;3.45;2.40;;;12.80;70.10;;;;;;5114827;28;20039;-73
2022/04/23 07:54:25;;;;;;;2.95;2.00;;;12.90;70.00;;;;;;5096453;28;20047;-73
2022/04/23 07:56:51;;;;;;;2.67;1.77;;;13.00;69.90;;;;;;5114464;28;20417;-72
2022/04/23 07:59:17;;;;;;;2.95;2.10;;;13.10;69.70;;;;;;5079566;28;20496;-72
2022/04/23 08:01:43;;;;;;;3.80;2.30;;;13.20;69.50;;;;;;5114751;28;20481;-73
2022/04/23 08:04:10;;;;;;;3.22;2.10;;;13.40;69.40;;;;;;5114264;28;20170;-73
2022/04/23 08:06:36;;;;;;;3.22;2.20;;;13.60;69.20;;;;;;5114418;28;20039;-72
2022/04/23 08:09:02;;;;;;;3.00;2.10;;;13.70;69.00;;;;;;5114474;28;20401;-72
2022/04/23 08:11:28;;;;;;;2.88;2.00;;;13.90;68.70;;;;;;5114828;28;20049;-73
2022/04/23 08:13:54;;;;;;;3.72;2.45;;;14.00;68.50;;;;;;5115058;28;20044;-73
2022/04/23 08:16:20;;;;;;;3.72;2.50;;;14.10;68.40;;;;;;5096150;28;20481;-73
2022/04/23 08:18:46;;;;;;;3.95;2.55;;;14.20;68.20;;;;;;5075355;28;20071;-73
2022/04/23 08:21:12;;;;;;;3.55;2.33;;;14.30;68.20;;;;;;5114191;28;20434;-73
2022/04/23 08:23:37;;;;;;;3.53;2.40;;;14.50;68.00;;;;;;5114788;28;20508;-72
2022/04/23 08:26:05;;;;;;;4.00;2.42;;;14.70;67.80;;;;;;5114302;28;20039;-72
2022/04/23 08:31:14;;;;;;;3.53;2.33;;;14.90;67.30;;;;;;5114219;28;20404;-73
2022/04/23 08:36:26;;;;;;;3.80;2.70;;;15.00;67.30;;;;;;5113973;28;20092;-72
2022/04/23 08:38:56;;;;;;;4.15;2.75;;;15.10;67.40;;;;;;5094644;28;20044;-74
2022/04/23 08:41:25;;;;;;;4.22;2.50;;;15.20;67.40;;;;;;5113961;28;20044;-73
2022/04/23 08:43:51;;;;;;;3.60;2.30;;;15.30;67.20;;;;;;5113998;28;20039;-73
2022/04/23 08:46:17;;;;;;;3.45;2.50;;;15.50;67.20;;;;;;5095676;28;20516;-72
2022/04/23 08:48:49;;;;;;;3.83;2.65;;;15.60;67.00;;;;;;5113878;28;20039;-73
2022/04/23 08:51:20;;;;;;;3.75;2.40;;;15.80;66.70;;;;;;5095173;28;20126;-73
2022/04/23 08:53:47;;;;;;;3.90;2.53;;;16.00;66.60;;;;;;5114111;28;20051;-72
2022/04/23 08:56:13;;;;;;;3.95;2.47;;;16.10;66.20;;;;;;5114017;28;20035;-73
2022/04/23 08:58:39;;;;;;;4.10;2.63;;;16.10;66.20;;;;;;5113647;28;20089;-73
2022/04/23 09:01:06;;;;;;;4.18;2.83;;;16.10;66.50;;;;;;5113753;28;20039;-73
2022/04/23 09:03:31;;;;;;;4.85;3.20;;;15.90;66.80;;;;;;5113387;28;20032;-73
2022/04/23 09:05:57;;;;;;;6.35;3.40;;;15.90;66.90;;;;;;5113732;28;20126;-74
2022/04/23 09:08:25;;;;;;;4.90;2.90;;;15.90;66.70;;;;;;5093872;28;20494;-73
2022/04/23 09:10:54;;;;;;;4.35;2.88;;;15.90;66.90;;;;;;5114123;28;20032;-73
2022/04/23 09:13:29;;;;;;;4.15;2.92;;;15.80;67.10;;;;;;5113244;28;20093;-72
2022/04/23 09:24:11;;;;;;;4.40;2.97;;;16.30;66.50;;;;;;5113240;28;20047;-72
2022/04/23 09:26:40;;;;;;;4.25;3.10;;;16.40;66.20;;;;;;5113535;28;20035;-72
2022/04/23 09:29:16;;;;;;;4.18;2.95;;;16.40;66.00;;;;;;5113209;28;20040;-73
2022/04/23 09:31:42;;;;;;;3.55;2.42;;;16.50;65.90;;;;;;5095820;28;20051;-72
2022/04/23 09:34:17;;;;;;;4.18;2.80;;;16.70;65.80;;;;;;5095376;28;20138;-72
2022/04/23 09:36:58;;;;;;;4.45;2.50;;;16.90;65.50;;;;;;5095230;28;20031;-72
2022/04/23 09:39:30;;;;;;;2.90;2.13;;;17.20;65.10;;;;;;5095304;28;20036;-72
2022/04/23 09:42:13;;;;;;;4.72;2.92;;;17.40;64.80;;;;;;5093164;28;20032;-71
2022/04/23 09:44:40;;;;;;;4.80;3.25;;;17.40;64.40;;;;;;5108898;28;20039;-72
2022/04/23 09:47:05;;;;;;;4.57;3.08;;;17.40;64.40;;;;;;5112866;28;20046;-72
2022/04/23 09:49:31;;;;;;;4.80;3.28;;;17.20;64.50;;;;;;5112850;28;20039;-73
2022/04/23 09:52:04;;;;;;;3.60;2.58;;;17.10;65.60;;;;;;5113115;28;20044;-72
2022/04/23 09:54:32;;;;;;;4.70;2.88;;;17.10;65.20;;;;;;5094522;28;20043;-72
2022/04/23 09:56:58;;;;;;;3.75;2.58;;;17.20;65.20;;;;;;5112718;28;20123;-73
2022/04/23 09:59:24;;;;;;;4.15;2.63;;;17.30;65.10;;;;;;5094312;28;20111;-73
2022/04/23 10:01:50;;;;;;;4.13;2.75;;;17.40;64.80;;;;;;5112854;28;20035;-72
2022/04/23 10:04:21;;;;;;;4.78;3.30;;;17.50;64.60;;;;;;5112452;28;20048;-73
2022/04/23 10:06:50;;;;;;;4.43;2.88;;;17.60;64.40;;;;;;5113173;28;20063;-72
2022/04/23 10:09:21;;;;;;;3.83;2.78;;;17.60;64.30;;;;;;5112634;28;20048;-72
2022/04/23 10:11:52;;;;;;;;;;;17.60;64.30;;;;;;5112844;28;20036;-73
2022/04/23 10:14:20;;;;;;;4.10;2.67;;;17.50;64.30;;;;;;5112932;28;20345;-72
2022/04/23 10:16:48;;;;;;;4.10;2.75;;;17.40;64.40;;;;;;5112627;28;20035;-73
2022/04/23 10:19:15;;;;;;;4.25;2.78;;;17.20;64.60;;;;;;5094065;28;20415;-73
2022/04/23 10:22:04;;;;;;;4.35;2.85;;;17.10;64.80;;;;;;5112876;28;20046;-72
2022/04/23 10:24:48;;;;;;;4.22;2.83;;;17.00;65.20;;;;;;5092372;28;20090;-73
2022/04/23 10:27:15;;;;;;;4.32;2.67;;;17.00;65.30;;;;;;5116068;28;20169;-72
2022/04/23 10:29:42;;;;;;;4.22;2.72;;;17.10;65.20;;;;;;5097790;28;20039;-72
2022/04/23 10:32:21;;;;;;;4.07;2.70;;;17.30;65.40;;;;;;5116571;28;20044;-72
2022/04/23 10:34:47;;;;;;;4.22;2.90;;;17.60;64.20;;;;;;5098426;28;20497;-73
2022/04/23 10:37:15;;;;;;;5.30;3.40;;;17.80;63.70;;;;;;5115865;28;20036;-72
2022/04/23 10:39:42;;;;;;;4.22;2.83;;;18.00;63.20;;;;;;5115827;28;20046;-72
2022/04/23 10:42:13;;;;;;;4.00;2.63;;;18.20;62.90;;;;;;5115763;28;20160;-72
2022/04/23 10:44:40;;;;;;;4.35;2.70;;;18.40;62.60;;;;;;5115825;28;20438;-72
2022/04/23 10:47:14;;;;;;;4.25;3.03;;;18.50;62.20;;;;;;5096331;28;20486;-73
2022/04/23 10:49:40;;;;;;;3.45;2.33;;;18.70;62.50;;;;;;5098159;28;20051;-73
2022/04/23 10:52:06;;;;;;;4.00;2.85;;;18.70;61.70;;;;;;5115651;28;20043;-72
2022/04/23 10:54:53;;;;;;;4.45;2.90;;;18.70;61.50;;;;;;5115637;28;20031;-73
2022/04/23 10:57:19;;;;;;;4.30;2.67;;;18.80;61.60;;;;;;5100442;28;20481;-72
2022/04/23 10:59:48;;;;;;;3.53;2.47;;;18.70;61.70;;;;;;5115412;28;20044;-72
2022/04/23 11:02:31;;;;;;;4.70;3.05;;;18.60;61.80;;;;;;5097250;28;20031;-72
2022/04/23 11:13:21;;;;;;;4.83;3.10;;;18.30;62.20;;;;;;5115384;28;20048;-72
2022/04/23 11:16:06;;;;;;;5.20;3.27;;;18.40;62.20;;;;;;5115884;28;20269;-72
2022/04/23 11:18:33;;;;;;;4.05;2.85;;;18.40;61.80;;;;;;5115764;28;20034;-72
2022/04/23 11:21:07;;;;;;;4.40;3.00;;;18.40;61.80;;;;;;5097605;28;20047;-72
2022/04/23 11:23:35;;;;;;;4.72;3.20;;;18.50;61.70;;;;;;5115635;28;20055;-72
2022/04/23 11:26:01;;;;;;;4.32;2.83;;;18.70;61.50;;;;;;5115041;28;20067;-72
2022/04/23 11:28:26;;;;;;;3.90;2.72;;;18.80;61.10;;;;;;5095889;28;20101;-71
2022/04/23 11:30:54;;;;;;;3.72;2.50;;;19.00;60.70;;;;;;5115426;28;20039;-72
2022/04/23 11:33:19;;;;;;;3.95;2.80;;;19.10;60.40;;;;;;5097462;28;20557;-72
2022/04/23 11:35:45;;;;;;;5.10;3.20;;;19.20;60.10;;;;;;5114788;28;20036;-71
2022/04/23 11:38:19;;;;;;;3.90;2.55;;;19.10;60.10;;;;;;5114209;28;20064;-71
2022/04/23 11:40:45;;;;;;;3.53;2.60;;;19.10;60.20;;;;;;5114931;28;20043;-71
2022/04/23 11:43:13;;;;;;;3.53;2.28;;;19.10;60.40;;;;;;5096743;28;20039;-72
2022/04/23 11:45:47;;;;;;;3.75;2.67;;;19.30;60.20;;;;;;5115445;28;20043;-72
2022/04/23 11:48:13;;;;;;;4.07;2.47;;;19.40;59.80;;;;;;5097361;28;20118;-71
2022/04/23 11:50:38;;;;;;;5.32;3.13;;;19.50;59.50;;;;;;5096555;28;20067;-71
2022/04/23 11:53:05;;;;;;;4.22;2.83;;;19.50;59.30;;;;;;5096615;28;20036;-72
2022/04/23 11:55:31;;;;;;;3.35;2.38;;;19.30;59.40;;;;;;5115408;28;20127;-72
2022/04/23 11:58:02;;;;;;;3.65;2.50;;;19.20;59.70;;;;;;5096428;28;20052;-71
2022/04/23 12:00:31;;;;;;;5.35;2.97;;;19.10;59.90;;;;;;5114891;28;20035;-73
2022/04/23 12:02:58;;;;;;;5.07;3.40;;;19.10;60.00;;;;;;5115355;28;20221;-72
2022/04/23 12:05:28;;;;;;;3.83;2.65;;;19.10;59.90;;;;;;5114963;28;20051;-72
2022/04/23 12:07:54;;;;;;;4.40;2.42;;;19.10;60.00;;;;;;5114849;28;20508;-73
2022/04/23 12:10:29;;;;;;;3.83;2.65;;;19.30;59.70;;;;;;5096612;28;20085;-73
2022/04/23 12:13:00;;;;;;;3.45;2.28;;;19.40;59.40;;;;;;5114797;28;20051;-72
2022/04/23 12:15:25;;;;;;;;;;;19.40;59.30;;;;;;5097699;28;20047;-73
2022/04/23 12:17:54;;;;;;;3.03;2.00;;;19.30;59.30;;;;;;5114250;28;19908;-72
2022/04/23 12:20:21;;;;;;;4.22;2.38;;;19.40;59.40;;;;;;5114394;28;20093;-72
2022/04/23 12:22:58;;;;;;;3.47;2.33;;;19.40;59.10;;;;;;5114792;28;20043;-72
2022/04/23 12:25:25;;;;;;;4.28;2.50;;;19.50;58.90;;;;;;5114241;28;20039;-72
2022/04/23 12:27:53;;;;;;;3.78;2.63;;;19.60;58.90;;;;;;5096041;28;20063;-72
2022/04/23 12:40:59;;;;;;;4.20;2.90;;;19.80;58.10;;;;;;5114114;28;20036;-71
2022/04/23 12:43:30;;;;;;;4.18;2.72;;;19.70;58.30;;;;;;5078799;28;20040;-72
2022/04/23 12:46:11;;;;;;;3.78;2.38;;;19.70;58.20;;;;;;5113998;28;20039;-72
2022/04/23 12:48:56;;;;;;;2.88;2.10;;;19.80;58.10;;;;;;5096015;28;20040;-71
2022/04/23 12:51:22;;;;;;;3.08;2.15;;;19.90;58.00;;;;;;5113995;28;20036;-71
2022/04/23 12:53:48;;;;;;;3.13;2.28;;;19.90;57.80;;;;;;5095434;28;20092;-72
2022/04/23 12:56:16;;;;;;;3.50;2.33;;;19.90;57.70;;;;;;5113987;28;20143;-70
2022/04/23 12:58:42;;;;;;;3.88;2.35;;;19.90;57.70;;;;;;5114410;28;20112;-72
2022/04/23 13:01:09;;;;;;;4.03;2.72;;;19.80;57.80;;;;;;5113602;28;20040;-71
2022/04/23 13:03:37;;;;;;;3.60;2.45;;;19.80;57.90;;;;;;5113419;28;20105;-71
2022/04/23 13:08:54;;;;;;;3.75;2.25;;;19.70;57.80;;;;;;5095679;28;20036;-70
2022/04/23 13:08:58;;;;;;;4.47;2.75;;;19.70;58.50;;;;;;5112930;28;20066;-71
2022/04/23 13:11:24;;;;;;;4.07;2.78;;;19.60;57.90;;;;;;5096386;28;20044;-71
2022/04/23 13:13:54;;;;;;;3.75;2.50;;;19.60;57.80;;;;;;5095072;28;20507;-72
2022/04/23 13:16:22;;;;;;;4.30;2.92;;;19.70;57.80;;;;;;5113890;28;20070;-72
2022/04/23 13:18:48;;;;;;;3.65;2.50;;;19.60;57.70;;;;;;5095342;28;20062;-71
2022/04/23 13:21:14;;;;;;;3.78;2.47;;;19.60;57.70;;;;;;5113222;28;20059;-71
2022/04/23 13:23:40;;;;;;;3.92;2.55;;;19.60;57.60;;;;;;5113167;28;20043;-72
2022/04/23 13:26:05;;;;;;;3.88;2.58;;;19.60;57.50;;;;;;5095688;28;20450;-71
2022/04/23 13:28:31;;;;;;;4.20;2.70;;;19.60;57.40;;;;;;5113664;28;20089;-72
2022/04/23 13:30:57;;;;;;;4.00;2.45;;;19.70;57.30;;;;;;5094618;28;20039;-72
2022/04/23 13:33:23;;;;;;;3.63;2.53;;;19.70;57.20;;;;;;5113078;28;20078;-71